Time;durP1;ratioP1;P1;durP2;ratioP2;P2;SDS_P1;SDS_P2;PMS_P1;PMS_P2;Temp;Humidity;BMP_temperature;BMP_pressure;BME280_temperature;BME280_humidity;BME280_pressure;Samples;Min_cycle;Max_cycle;Signal;HPM_P1;HPM_P2
2021/05/23 00:00:46;;;;;;;4.32;1.95;;;14.30;61.30;;;;;;5070827;28;20069;-71
2021/05/23 00:03:14;;;;;;;5.03;2.35;;;14.30;61.60;;;;;;5071156;28;20025;-70
2021/05/23 00:05:41;;;;;;;4.93;2.15;;;14.20;61.60;;;;;;5070938;28;20104;-70
2021/05/23 00:08:16;;;;;;;3.95;2.40;;;14.20;61.60;;;;;;5071987;28;20182;-70
2021/05/23 00:10:44;;;;;;;4.78;2.75;;;14.20;61.80;;;;;;5072146;28;20036;-70
2021/05/23 00:13:11;;;;;;;3.45;2.20;;;14.20;61.90;;;;;;5074781;28;20028;-70
2021/05/23 00:15:44;;;;;;;2.90;2.20;;;14.20;62.00;;;;;;5082999;28;20107;-70
2021/05/23 00:18:11;;;;;;;4.85;2.60;;;14.10;62.10;;;;;;5072046;28;20036;-70
2021/05/23 00:20:37;;;;;;;4.45;2.38;;;14.10;62.20;;;;;;5078112;28;20526;-70
2021/05/23 00:23:04;;;;;;;5.57;2.60;;;14.10;62.40;;;;;;5094776;28;20066;-70
2021/05/23 00:25:31;;;;;;;3.55;2.30;;;14.00;62.50;;;;;;5094636;28;20025;-70
2021/05/23 00:27:57;;;;;;;4.18;2.50;;;14.00;62.70;;;;;;5111427;28;20020;-71
2021/05/23 00:30:23;;;;;;;3.55;2.15;;;14.00;62.70;;;;;;5094343;28;20361;-70
2021/05/23 00:32:50;;;;;;;3.78;2.50;;;14.00;62.60;;;;;;5111166;28;20535;-70
2021/05/23 00:35:16;;;;;;;5.40;2.28;;;14.00;62.80;;;;;;5094323;28;20098;-70
2021/05/23 00:37:42;;;;;;;5.70;2.38;;;14.00;62.90;;;;;;5095564;28;20039;-70
2021/05/23 00:40:09;;;;;;;6.10;2.33;;;14.00;63.00;;;;;;5095446;28;20032;-70
2021/05/23 00:42:36;;;;;;;3.42;2.28;;;14.00;63.10;;;;;;5095413;28;20075;-70
2021/05/23 00:45:03;;;;;;;5.57;2.67;;;14.00;63.10;;;;;;5094320;28;20111;-70
2021/05/23 00:47:29;;;;;;;4.22;2.40;;;14.00;63.30;;;;;;5095622;28;20028;-70
2021/05/23 00:49:55;;;;;;;5.85;2.65;;;14.00;63.40;;;;;;5095807;28;20032;-70
2021/05/23 00:52:20;;;;;;;6.93;2.97;;;14.00;63.40;;;;;;5094028;28;20023;-70
2021/05/23 00:54:46;;;;;;;4.90;2.45;;;13.90;63.60;;;;;;5093694;28;20059;-71
2021/05/23 00:57:12;;;;;;;5.47;2.97;;;13.80;63.80;;;;;;5093845;28;20466;-70
2021/05/23 00:59:37;;;;;;;6.22;3.60;;;13.80;64.10;;;;;;5095440;28;20364;-70
2021/05/23 01:02:06;;;;;;;10.40;4.82;;;13.80;64.30;;;;;;5095199;28;20110;-70
2021/05/23 01:04:33;;;;;;;13.77;4.30;;;13.70;64.50;;;;;;5093358;28;20386;-70
2021/05/23 01:06:59;;;;;;;6.68;2.50;;;13.70;64.50;;;;;;5111089;28;20479;-70
2021/05/23 01:09:25;;;;;;;5.55;2.72;;;13.70;64.50;;;;;;5094946;28;20068;-70
2021/05/23 01:11:50;;;;;;;3.92;2.58;;;13.60;64.50;;;;;;5095044;28;20023;-70
2021/05/23 01:14:47;;;;;;;4.07;2.70;;;13.60;64.70;;;;;;5094815;28;20370;-70
2021/05/23 01:17:15;;;;;;;3.95;2.60;;;13.60;64.70;;;;;;5094954;28;20446;-70
2021/05/23 01:20:01;;;;;;;3.92;2.47;;;13.50;64.70;;;;;;5093567;28;20458;-70
2021/05/23 01:22:48;;;;;;;4.82;2.78;;;13.50;65.00;;;;;;5094304;28;20032;-71
2021/05/23 01:25:19;;;;;;;4.60;2.92;;;13.50;65.10;;;;;;5097752;28;20031;-70
2021/05/23 01:27:49;;;;;;;4.80;3.00;;;13.50;65.20;;;;;;5093505;28;20174;-70
2021/05/23 01:30:25;;;;;;;5.25;2.70;;;13.50;65.50;;;;;;5094514;28;20022;-70
2021/05/23 01:32:58;;;;;;;4.78;2.88;;;13.50;65.50;;;;;;5094506;28;20466;-71
2021/05/23 01:35:36;;;;;;;5.65;2.90;;;13.50;65.70;;;;;;5079375;28;20020;-71
2021/05/23 01:38:06;;;;;;;5.70;3.10;;;13.60;65.70;;;;;;5095211;28;20024;-70
2021/05/23 01:40:34;;;;;;;5.13;2.97;;;13.50;65.60;;;;;;5110082;28;20032;-71
2021/05/23 01:43:00;;;;;;;7.75;2.50;;;13.50;65.80;;;;;;5094614;28;20025;-70
2021/05/23 01:45:28;;;;;;;4.63;2.50;;;13.50;65.80;;;;;;5109919;28;20463;-70
2021/05/23 01:47:53;;;;;;;3.30;2.40;;;13.50;65.90;;;;;;5094387;28;20028;-71
2021/05/23 01:50:19;;;;;;;4.22;2.70;;;13.50;65.80;;;;;;5092972;28;20020;-70
2021/05/23 01:52:51;;;;;;;5.97;2.80;;;13.60;65.80;;;;;;5092809;28;20025;-70
2021/05/23 01:55:17;;;;;;;3.90;2.75;;;13.60;65.80;;;;;;5093948;28;20532;-70
2021/05/23 01:57:43;;;;;;;4.30;2.60;;;13.60;65.80;;;;;;5093105;28;20027;-70
2021/05/23 02:00:10;;;;;;;4.85;2.70;;;13.60;65.80;;;;;;5094169;28;20382;-70
2021/05/23 02:02:36;;;;;;;6.45;2.88;;;13.70;66.00;;;;;;5095407;28;20051;-70
2021/05/23 02:05:03;;;;;;;5.88;2.72;;;13.80;65.90;;;;;;5093981;28;20390;-70
2021/05/23 02:07:29;;;;;;;3.50;2.53;;;13.80;65.80;;;;;;5092396;28;20020;-70
2021/05/23 02:09:55;;;;;;;5.32;2.70;;;13.80;65.70;;;;;;5093078;28;20110;-70
2021/05/23 02:12:22;;;;;;;4.55;2.55;;;13.80;66.40;;;;;;5093726;28;20028;-70
2021/05/23 02:14:48;;;;;;;5.43;2.40;;;13.90;65.80;;;;;;5093482;28;20028;-70
2021/05/23 02:17:13;;;;;;;4.47;2.75;;;14.00;65.80;;;;;;5091855;28;20490;-70
2021/05/23 02:19:42;;;;;;;4.30;2.75;;;14.10;65.80;;;;;;5092709;28;20073;-70
2021/05/23 02:22:09;;;;;;;7.32;4.70;;;14.10;65.80;;;;;;5093893;28;20035;-70
2021/05/23 02:24:35;;;;;;;16.45;11.65;;;14.20;65.70;;;;;;5091686;28;20036;-70
2021/05/23 02:27:00;;;;;;;30.08;19.02;;;14.30;65.80;;;;;;5092366;28;20125;-69
2021/05/23 02:29:26;;;;;;;48.40;35.90;;;14.40;65.70;;;;;;5092108;28;20114;-70
2021/05/23 02:31:52;;;;;;;55.63;42.75;;;14.50;65.60;;;;;;5093423;28;20028;-70
2021/05/23 02:34:17;;;;;;;17.65;13.30;;;14.70;65.50;;;;;;5093762;28;20046;-70
2021/05/23 02:36:43;;;;;;;23.80;18.33;;;14.80;65.40;;;;;;5091568;28;20023;-70
2021/05/23 02:39:09;;;;;;;26.30;19.92;;;14.90;65.20;;;;;;5093587;28;20032;-70
2021/05/23 02:41:34;;;;;;;27.20;21.48;;;15.00;65.30;;;;;;5091794;28;20054;-70
2021/05/23 02:44:00;;;;;;;31.75;24.85;;;15.10;65.40;;;;;;5092768;28;20020;-70
2021/05/23 02:46:26;;;;;;;31.00;22.17;;;15.20;65.50;;;;;;5091482;28;20474;-71
2021/05/23 02:48:52;;;;;;;23.90;18.95;;;15.40;65.60;;;;;;5091834;28;20055;-70
2021/05/23 02:51:17;;;;;;;22.83;18.70;;;15.60;65.50;;;;;;5092089;28;20028;-70
2021/05/23 02:53:43;;;;;;;32.42;23.50;;;15.70;65.10;;;;;;5091662;28;20023;-70
2021/05/23 02:56:09;;;;;;;30.35;22.60;;;15.80;65.00;;;;;;5093188;28;20028;-69
2021/05/23 02:58:34;;;;;;;30.40;21.40;;;15.80;64.90;;;;;;5092412;28;20020;-69
2021/05/23 03:01:00;;;;;;;27.48;21.38;;;15.90;64.80;;;;;;5092959;28;20024;-69
2021/05/23 03:03:26;;;;;;;28.33;22.55;;;15.90;64.80;;;;;;5091959;28;20028;-69
2021/05/23 03:05:52;;;;;;;25.20;18.33;;;16.00;65.30;;;;;;5091510;28;20039;-71
2021/05/23 03:08:17;;;;;;;11.40;7.63;;;16.00;65.70;;;;;;5091889;28;20516;-70
2021/05/23 03:10:49;;;;;;;15.93;8.80;;;16.10;65.50;;;;;;5092426;28;20032;-70
2021/05/23 03:13:15;;;;;;;17.58;8.15;;;16.20;65.50;;;;;;5092878;28;20427;-71
2021/05/23 03:15:41;;;;;;;22.88;9.77;;;16.20;65.50;;;;;;5091500;28;20032;-70
2021/05/23 03:18:07;;;;;;;32.08;12.32;;;16.30;65.00;;;;;;5093144;28;20043;-70
2021/05/23 03:20:35;;;;;;;39.90;13.73;;;16.40;64.70;;;;;;5091503;28;20032;-70
2021/05/23 03:23:01;;;;;;;42.35;14.10;;;16.40;64.30;;;;;;5092779;28;20077;-70
2021/05/23 03:25:30;;;;;;;45.50;16.58;;;16.40;64.40;;;;;;5092804;28;20036;-70
2021/05/23 03:27:58;;;;;;;40.97;15.98;;;16.40;64.40;;;;;;5090885;28;20034;-71
2021/05/23 03:30:27;;;;;;;43.60;17.17;;;16.40;64.40;;;;;;5092647;28;20031;-70
2021/05/23 03:32:53;;;;;;;51.28;17.65;;;16.40;64.40;;;;;;5091646;28;20470;-71
2021/05/23 03:35:19;;;;;;;74.75;27.83;;;16.30;64.40;;;;;;5092480;28;20024;-71
2021/05/23 03:37:46;;;;;;;86.95;30.55;;;16.40;65.40;;;;;;5092876;28;20043;-71
2021/05/23 03:40:15;;;;;;;65.15;25.02;;;16.30;64.80;;;;;;5091057;28;20157;-70
2021/05/23 03:42:41;;;;;;;41.92;17.40;;;16.30;65.00;;;;;;5090816;28;20028;-70
2021/05/23 03:45:08;;;;;;;33.63;13.68;;;16.20;65.10;;;;;;5092071;28;20028;-70
2021/05/23 03:47:34;;;;;;;19.90;9.27;;;16.20;65.40;;;;;;5092671;28;20032;-70
2021/05/23 03:50:00;;;;;;;12.15;5.07;;;16.20;65.60;;;;;;5108040;28;20028;-71
2021/05/23 03:52:26;;;;;;;11.82;4.57;;;16.20;65.80;;;;;;5108102;28;20031;-71
2021/05/23 03:54:52;;;;;;;9.27;5.20;;;16.20;65.90;;;;;;5094604;28;20043;-71
2021/05/23 03:57:17;;;;;;;18.00;7.60;;;16.20;66.00;;;;;;5094861;28;20020;-70
2021/05/23 03:59:43;;;;;;;54.10;19.88;;;16.20;66.10;;;;;;5095370;28;20058;-70
2021/05/23 04:02:09;;;;;;;129.40;45.60;;;16.20;66.50;;;;;;5095991;28;20028;-70
2021/05/23 04:04:56;;;;;;;108.47;37.03;;;16.20;66.80;;;;;;5095891;28;20032;-70
2021/05/23 04:07:22;;;;;;;54.53;19.63;;;16.10;67.00;;;;;;5094807;28;20474;-70
2021/05/23 04:09:49;;;;;;;15.73;7.07;;;16.10;67.60;;;;;;5096287;28;20450;-71
2021/05/23 04:12:20;;;;;;;11.07;5.97;;;16.10;67.70;;;;;;5096013;28;20031;-70
2021/05/23 04:14:46;;;;;;;14.82;6.43;;;16.10;68.20;;;;;;5095991;28;20051;-71
2021/05/23 04:17:12;;;;;;;11.20;5.85;;;16.10;68.60;;;;;;5094601;28;20067;-71
2021/05/23 04:19:38;;;;;;;11.93;5.35;;;16.10;68.80;;;;;;5094862;28;20020;-70
2021/05/23 04:22:04;;;;;;;14.20;6.75;;;16.20;69.10;;;;;;5094750;28;20028;-70
2021/05/23 04:24:35;;;;;;;28.90;11.57;;;16.20;69.20;;;;;;5094137;28;20028;-70
2021/05/23 04:27:00;;;;;;;53.80;19.83;;;16.40;69.30;;;;;;5095908;28;20111;-70
2021/05/23 04:29:26;;;;;;;43.17;17.42;;;16.50;69.20;;;;;;5095360;28;20103;-70
2021/05/23 04:31:52;;;;;;;36.85;14.52;;;16.70;69.10;;;;;;5095522;28;20016;-70
2021/05/23 04:34:18;;;;;;;19.15;7.00;;;17.00;68.50;;;;;;5094637;28;20046;-70
2021/05/23 04:36:44;;;;;;;19.50;7.28;;;17.20;67.80;;;;;;5093789;28;20024;-69
2021/05/23 04:39:09;;;;;;;17.67;6.50;;;17.20;67.50;;;;;;5094618;28;20032;-70
2021/05/23 04:41:35;;;;;;;9.30;4.32;;;17.30;67.40;;;;;;5095299;28;20110;-69
2021/05/23 04:44:01;;;;;;;8.52;4.30;;;17.40;67.10;;;;;;5094698;28;20024;-70
2021/05/23 04:46:27;;;;;;;10.65;4.43;;;17.60;66.90;;;;;;5095330;28;20454;-70
2021/05/23 04:48:53;;;;;;;7.22;3.70;;;17.80;66.60;;;;;;5094089;28;20111;-70
2021/05/23 04:51:19;;;;;;;6.35;3.75;;;18.00;66.20;;;;;;5094129;28;20030;-70
2021/05/23 04:53:44;;;;;;;7.30;3.45;;;18.30;65.90;;;;;;5093936;28;20386;-70
2021/05/23 04:56:10;;;;;;;7.97;3.50;;;18.60;65.30;;;;;;5094208;28;20024;-69
2021/05/23 04:58:36;;;;;;;6.68;3.70;;;18.80;64.30;;;;;;5093507;28;20024;-70
2021/05/23 05:01:01;;;;;;;7.70;4.40;;;18.90;63.90;;;;;;5094129;28;20024;-69
2021/05/23 05:03:27;;;;;;;6.30;4.00;;;19.00;63.70;;;;;;5095282;28;20101;-69
2021/05/23 05:05:53;;;;;;;6.47;3.60;;;19.10;63.40;;;;;;5092704;28;20161;-70
2021/05/23 05:08:18;;;;;;;6.28;3.40;;;19.20;63.20;;;;;;5094129;28;20039;-70
2021/05/23 05:10:44;;;;;;;7.97;3.22;;;19.30;63.00;;;;;;5093181;28;20756;-70
2021/05/23 05:13:10;;;;;;;6.20;3.25;;;19.40;62.80;;;;;;5095054;28;20095;-70
2021/05/23 05:15:35;;;;;;;8.15;2.83;;;19.60;62.40;;;;;;5093276;28;20046;-69
2021/05/23 05:18:01;;;;;;;6.38;2.90;;;19.60;62.20;;;;;;5094776;28;20048;-70
2021/05/23 05:20:27;;;;;;;6.45;2.75;;;19.90;62.20;;;;;;5093259;28;20028;-70
2021/05/23 05:22:53;;;;;;;7.00;3.03;;;20.50;62.00;;;;;;5094853;28;20111;-70
2021/05/23 05:25:20;;;;;;;7.93;3.33;;;21.10;61.40;;;;;;5093411;28;20036;-70
2021/05/23 05:27:46;;;;;;;5.20;3.10;;;21.70;60.20;;;;;;5094864;28;20024;-70
2021/05/23 05:30:12;;;;;;;6.50;3.17;;;22.20;58.50;;;;;;5093259;28;20028;-70
2021/05/23 05:32:38;;;;;;;6.75;3.30;;;22.50;57.70;;;;;;5094298;28;20060;-69
2021/05/23 05:35:04;;;;;;;5.72;2.90;;;22.80;56.20;;;;;;5092872;28;20433;-70
2021/05/23 05:37:30;;;;;;;6.13;2.83;;;22.90;55.90;;;;;;5094776;28;20112;-69
2021/05/23 05:39:55;;;;;;;4.43;3.03;;;23.20;55.70;;;;;;5093214;28;20115;-70
2021/05/23 05:42:21;;;;;;;6.07;3.28;;;23.50;54.90;;;;;;5093391;28;20032;-70
2021/05/23 05:44:47;;;;;;;7.18;2.92;;;23.70;54.80;;;;;;5093925;28;20032;-70
2021/05/23 05:47:13;;;;;;;5.53;2.97;;;24.00;54.20;;;;;;5094110;28;20064;-70
2021/05/23 05:49:38;;;;;;;4.93;2.78;;;24.30;53.70;;;;;;5094293;28;20099;-69
2021/05/23 05:52:07;;;;;;;5.80;2.80;;;24.40;53.20;;;;;;5093484;28;20051;-68
2021/05/23 05:54:33;;;;;;;5.50;2.63;;;24.50;53.10;;;;;;5092689;28;20051;-68
2021/05/23 05:57:00;;;;;;;4.55;2.60;;;24.80;52.60;;;;;;5092716;28;20035;-73
2021/05/23 05:59:26;;;;;;;4.70;2.90;;;24.70;51.90;;;;;;5094275;28;20102;-86
2021/05/23 06:01:51;;;;;;;6.18;3.05;;;24.50;51.60;;;;;;5093149;28;20115;-84
2021/05/23 06:04:17;;;;;;;5.85;2.80;;;24.20;51.80;;;;;;5109642;28;20031;-80
2021/05/23 06:06:43;;;;;;;6.00;2.95;;;24.10;52.40;;;;;;5092494;28;20028;-72
2021/05/23 06:09:09;;;;;;;5.85;3.25;;;24.30;53.10;;;;;;5094145;28;20042;-73
2021/05/23 06:11:35;;;;;;;4.60;2.75;;;24.40;53.00;;;;;;5086581;28;21188;-74
2021/05/23 06:14:00;;;;;;;6.15;2.80;;;24.70;52.90;;;;;;5077573;28;20382;-74
2021/05/23 06:16:26;;;;;;;5.85;2.80;;;25.10;52.60;;;;;;5075403;28;20051;-78
2021/05/23 06:18:54;;;;;;;5.90;3.00;;;25.20;52.10;;;;;;5076845;28;20025;-76
2021/05/23 06:21:19;;;;;;;5.20;2.60;;;25.30;51.90;;;;;;5085393;28;20119;-74
2021/05/23 06:23:45;;;;;;;5.18;2.97;;;25.30;51.30;;;;;;5078418;28;20155;-75
2021/05/23 06:26:14;;;;;;;12.15;6.47;;;25.40;50.70;;;;;;5082037;28;20028;-74
2021/05/23 06:28:41;;;;;;;8.90;3.55;;;25.30;50.60;;;;;;5083968;28;20047;-74
2021/05/23 06:31:08;;;;;;;5.95;3.22;;;25.20;50.30;;;;;;5092568;28;20484;-74
2021/05/23 06:33:34;;;;;;;5.60;3.13;;;25.00;50.50;;;;;;5091876;28;20020;-74
2021/05/23 06:35:59;;;;;;;6.15;2.97;;;24.70;50.30;;;;;;5107734;28;20382;-74
2021/05/23 06:38:25;;;;;;;6.45;3.30;;;24.50;50.70;;;;;;5090929;28;20020;-77
2021/05/23 06:40:51;;;;;;;6.07;3.47;;;24.30;51.10;;;;;;5090872;28;20020;-74
2021/05/23 06:43:17;;;;;;;9.48;3.30;;;24.20;51.80;;;;;;5074585;28;20013;-73
2021/05/23 06:45:42;;;;;;;5.93;3.55;;;24.00;51.80;;;;;;5079976;28;20028;-76
2021/05/23 06:48:09;;;;;;;16.20;12.23;;;24.20;52.20;;;;;;5074165;28;20033;-73
2021/05/23 06:50:37;;;;;;;18.38;13.55;;;24.40;52.20;;;;;;5074779;28;20017;-73
2021/05/23 06:53:03;;;;;;;21.15;16.23;;;24.50;52.30;;;;;;5075341;28;20048;-74
2021/05/23 06:55:29;;;;;;;19.88;10.88;;;24.70;52.20;;;;;;5082156;28;20028;-74
2021/05/23 06:57:55;;;;;;;20.05;12.43;;;25.10;52.30;;;;;;5079853;28;20028;-75
2021/05/23 07:00:21;;;;;;;19.15;15.73;;;25.70;52.20;;;;;;5081606;28;20028;-76
2021/05/23 07:02:47;;;;;;;9.95;6.38;;;26.20;51.20;;;;;;5081668;28;20012;-78
2021/05/23 07:05:14;;;;;;;8.52;6.45;;;26.40;49.70;;;;;;5089145;28;20081;-74
2021/05/23 07:07:39;;;;;;;10.80;8.57;;;26.60;49.10;;;;;;5079516;28;20028;-75
2021/05/23 07:10:06;;;;;;;10.20;5.32;;;27.10;49.30;;;;;;5084955;28;20113;-75
2021/05/23 07:12:31;;;;;;;12.57;5.15;;;27.80;48.60;;;;;;5072357;28;20446;-75
2021/05/23 07:14:57;;;;;;;5.40;3.85;;;28.40;47.80;;;;;;5074929;28;20025;-78
2021/05/23 07:17:23;;;;;;;5.70;3.80;;;28.80;46.80;;;;;;5077060;28;20474;-77
2021/05/23 07:19:48;;;;;;;9.02;4.80;;;29.10;46.10;;;;;;5086923;28;20485;-74
2021/05/23 07:22:15;;;;;;;12.55;5.50;;;29.40;45.50;;;;;;5083170;28;20108;-78
2021/05/23 07:24:40;;;;;;;6.72;4.88;;;29.70;45.50;;;;;;5076197;28;20063;-76
2021/05/23 07:27:06;;;;;;;6.65;4.43;;;29.90;44.70;;;;;;5075975;28;20048;-76
2021/05/23 07:29:32;;;;;;;9.52;6.00;;;30.30;44.70;;;;;;5076351;28;20474;-76
2021/05/23 07:31:58;;;;;;;11.82;7.22;;;30.40;44.30;;;;;;5082694;28;20108;-74
2021/05/23 07:34:24;;;;;;;12.90;6.60;;;30.80;43.90;;;;;;5080975;28;20374;-75
2021/05/23 07:36:49;;;;;;;16.67;10.50;;;31.30;43.00;;;;;;5084640;28;20103;-74
2021/05/23 07:39:15;;;;;;;14.27;7.60;;;31.70;42.60;;;;;;5087830;28;20066;-75
2021/05/23 07:41:41;;;;;;;8.40;5.20;;;31.80;43.00;;;;;;5090800;28;20028;-76
2021/05/23 07:44:06;;;;;;;7.35;4.18;;;31.70;42.10;;;;;;5096121;28;20039;-75
2021/05/23 07:46:32;;;;;;;10.38;4.45;;;31.60;41.90;;;;;;5091485;28;20028;-75
2021/05/23 07:48:58;;;;;;;11.02;7.18;;;31.80;41.70;;;;;;5091123;28;20020;-75
2021/05/23 07:51:24;;;;;;;7.15;5.13;;;31.70;41.30;;;;;;5094455;28;20020;-77
2021/05/23 07:53:51;;;;;;;9.45;4.03;;;31.20;41.30;;;;;;5096793;28;20031;-75
2021/05/23 07:56:17;;;;;;;9.23;4.00;;;30.30;41.60;;;;;;5092184;28;20032;-76
2021/05/23 07:58:43;;;;;;;6.55;3.80;;;29.40;42.70;;;;;;5088625;28;20020;-74
2021/05/23 08:01:09;;;;;;;6.93;3.53;;;28.50;43.60;;;;;;5081979;28;20059;-72
2021/05/23 08:03:35;;;;;;;9.32;3.70;;;27.70;44.80;;;;;;5081674;28;21346;-76
2021/05/23 08:06:03;;;;;;;6.20;3.55;;;27.00;45.80;;;;;;5079885;28;20029;-74
2021/05/23 08:08:29;;;;;;;9.32;4.18;;;26.80;46.80;;;;;;5080594;28;20024;-75
2021/05/23 08:10:55;;;;;;;8.30;3.45;;;26.90;47.70;;;;;;5081262;28;20493;-74
2021/05/23 08:13:20;;;;;;;5.97;3.22;;;27.10;48.30;;;;;;5078309;28;20024;-74
2021/05/23 08:15:46;;;;;;;5.55;3.03;;;27.70;47.50;;;;;;5094041;28;20030;-77
2021/05/23 08:18:17;;;;;;;6.72;3.20;;;27.80;47.00;;;;;;5098235;28;20052;-76
2021/05/23 08:20:43;;;;;;;5.85;3.17;;;27.60;47.80;;;;;;5097692;28;20378;-78
2021/05/23 08:23:09;;;;;;;5.60;3.17;;;27.40;47.80;;;;;;5099010;28;20024;-77
2021/05/23 08:25:34;;;;;;;8.15;2.88;;;27.40;47.90;;;;;;5098273;28;20035;-77
2021/05/23 08:28:00;;;;;;;4.90;3.30;;;27.30;48.40;;;;;;5096810;28;20020;-78
2021/05/23 08:30:26;;;;;;;5.88;2.80;;;27.50;47.80;;;;;;5084354;28;20020;-78
2021/05/23 08:32:51;;;;;;;7.22;3.47;;;27.70;47.30;;;;;;5094197;28;20021;-76
2021/05/23 08:35:17;;;;;;;5.05;2.92;;;28.10;47.10;;;;;;5088978;28;20024;-78
2021/05/23 08:37:43;;;;;;;6.03;3.10;;;28.30;46.90;;;;;;5092875;28;20028;-77
2021/05/23 08:40:09;;;;;;;7.03;3.63;;;28.40;46.20;;;;;;5095066;28;20028;-70
2021/05/23 08:42:37;;;;;;;9.13;3.85;;;28.30;46.40;;;;;;5085805;28;20458;-70
2021/05/23 08:45:04;;;;;;;5.45;3.30;;;28.40;47.10;;;;;;5085524;28;20492;-71
2021/05/23 08:47:38;;;;;;;6.35;3.63;;;29.00;47.20;;;;;;5092089;28;20390;-71
2021/05/23 08:50:05;;;;;;;8.55;3.83;;;29.50;45.90;;;;;;5090250;28;20023;-70
2021/05/23 08:52:30;;;;;;;8.48;3.50;;;29.70;45.80;;;;;;5086443;28;20028;-72
2021/05/23 08:54:57;;;;;;;8.18;3.17;;;30.10;45.60;;;;;;5086159;28;20041;-73
2021/05/23 08:57:23;;;;;;;5.15;3.00;;;30.40;44.30;;;;;;5093307;28;20020;-72
2021/05/23 08:59:49;;;;;;;4.53;2.60;;;30.50;42.70;;;;;;5084891;28;20470;-71
2021/05/23 09:02:15;;;;;;;5.50;2.40;;;30.20;42.50;;;;;;5086878;28;20028;-79
2021/05/23 09:04:51;;;;;;;5.72;2.53;;;30.20;43.60;;;;;;5092559;28;20029;-72
2021/05/23 09:07:17;;;;;;;4.10;2.30;;;30.70;43.40;;;;;;5094679;28;20028;-73
2021/05/23 09:09:46;;;;;;;3.83;2.00;;;31.00;42.60;;;;;;5101462;28;20028;-73
2021/05/23 09:12:14;;;;;;;5.93;2.20;;;31.30;43.00;;;;;;5086768;28;20529;-75
2021/05/23 09:14:44;;;;;;;3.10;2.30;;;31.80;43.50;;;;;;5080060;28;20478;-75
2021/05/23 09:17:28;;;;;;;5.15;3.25;;;31.80;41.90;;;;;;5087285;28;20123;-73
2021/05/23 09:19:56;;;;;;;4.70;2.92;;;31.20;41.80;;;;;;5087656;28;20020;-73
2021/05/23 09:22:26;;;;;;;12.55;3.42;;;31.20;42.40;;;;;;5075916;28;20029;-72
2021/05/23 09:24:57;;;;;;;7.05;2.70;;;30.90;41.90;;;;;;5088488;28;20032;-73
2021/05/23 09:27:24;;;;;;;4.05;2.40;;;30.10;42.70;;;;;;5093171;28;20119;-76
2021/05/23 09:30:12;;;;;;;5.57;2.70;;;29.30;43.60;;;;;;5092555;28;20050;-73
2021/05/23 09:32:41;;;;;;;5.70;2.53;;;28.60;44.30;;;;;;5092248;28;20030;-73
2021/05/23 09:35:08;;;;;;;6.75;2.47;;;28.20;45.60;;;;;;5088616;28;20032;-74
2021/05/23 09:37:35;;;;;;;8.30;2.60;;;28.10;46.40;;;;;;5090557;28;20039;-74
2021/05/23 09:40:02;;;;;;;7.55;2.30;;;28.30;46.60;;;;;;5085045;28;20020;-73
2021/05/23 09:42:28;;;;;;;3.10;2.13;;;28.90;45.70;;;;;;5093502;28;20031;-72
2021/05/23 09:44:58;;;;;;;4.68;1.70;;;28.70;45.10;;;;;;5091256;28;20024;-71
2021/05/23 09:47:25;;;;;;;4.28;2.08;;;28.40;44.80;;;;;;5088707;28;20037;-71
2021/05/23 09:49:53;;;;;;;7.07;2.75;;;28.20;45.40;;;;;;5089452;28;20352;-71
2021/05/23 09:52:32;;;;;;;4.70;2.13;;;28.70;46.40;;;;;;5092572;28;20516;-70
2021/05/23 09:55:01;;;;;;;4.15;1.70;;;29.20;44.30;;;;;;5087630;28;20024;-71
2021/05/23 09:57:28;;;;;;;2.13;1.35;;;28.90;42.80;;;;;;5091993;28;20042;-72
2021/05/23 10:00:11;;;;;;;2.28;1.55;;;28.40;42.00;;;;;;5088234;28;20987;-70
2021/05/23 10:02:54;;;;;;;6.95;3.20;;;28.20;42.20;;;;;;5102084;28;20024;-71
2021/05/23 10:05:21;;;;;;;3.25;1.50;;;27.80;42.30;;;;;;5089755;28;20470;-72
2021/05/23 10:07:46;;;;;;;2.15;1.50;;;27.90;43.10;;;;;;5090946;28;20039;-71
2021/05/23 10:10:13;;;;;;;2.72;1.92;;;28.40;42.60;;;;;;5088925;28;20386;-70
2021/05/23 10:12:40;;;;;;;7.75;2.78;;;29.10;43.10;;;;;;5086415;28;20385;-70
2021/05/23 10:15:06;;;;;;;3.95;1.60;;;29.90;43.30;;;;;;5092911;28;20032;-70
2021/05/23 10:17:39;;;;;;;2.90;1.35;;;30.60;42.60;;;;;;5090605;28;20047;-72
2021/05/23 10:20:08;;;;;;;3.97;1.90;;;31.10;41.20;;;;;;5085637;28;20032;-72
2021/05/23 10:22:38;;;;;;;3.33;1.70;;;31.50;40.50;;;;;;5087153;28;20360;-72
2021/05/23 10:25:08;;;;;;;2.65;1.65;;;31.70;40.20;;;;;;5083545;28;20036;-73
2021/05/23 10:27:37;;;;;;;4.93;1.40;;;31.80;40.80;;;;;;5082036;28;20031;-77
2021/05/23 10:30:06;;;;;;;2.03;1.17;;;32.30;39.70;;;;;;5097175;28;20020;-75
2021/05/23 10:32:34;;;;;;;4.00;1.50;;;32.50;38.80;;;;;;5087547;28;20031;-76
2021/05/23 10:35:14;;;;;;;2.53;1.23;;;32.60;38.20;;;;;;5090425;28;20032;-75
2021/05/23 10:37:42;;;;;;;2.72;1.10;;;32.40;37.30;;;;;;5091224;28;20028;-75
2021/05/23 10:40:18;;;;;;;1.35;1.00;;;32.20;36.50;;;;;;5085667;28;20027;-76
2021/05/23 10:42:56;;;;;;;1.20;1.10;;;32.00;36.50;;;;;;5088909;28;20035;-75
2021/05/23 10:45:30;;;;;;;1.98;1.10;;;32.00;36.80;;;;;;5086025;28;20534;-76
2021/05/23 10:47:57;;;;;;;2.35;1.30;;;32.30;35.80;;;;;;5089104;28;20036;-74
2021/05/23 10:50:31;;;;;;;2.03;1.00;;;32.00;36.20;;;;;;5086257;28;21162;-75
2021/05/23 10:52:58;;;;;;;2.75;1.05;;;31.80;35.30;;;;;;5089858;28;20027;-76
2021/05/23 10:55:24;;;;;;;2.53;1.08;;;31.40;35.40;;;;;;5085606;28;20035;-74
2021/05/23 10:57:50;;;;;;;1.80;1.13;;;31.40;35.40;;;;;;5085647;28;20373;-76
2021/05/23 11:00:27;;;;;;;3.15;1.20;;;31.50;35.60;;;;;;5088703;28;20029;-73
2021/05/23 11:02:54;;;;;;;3.50;1.25;;;31.40;34.80;;;;;;5085502;28;20035;-76
2021/05/23 11:05:27;;;;;;;4.68;1.20;;;31.10;35.70;;;;;;5084328;28;20028;-75
2021/05/23 11:08:04;;;;;;;1.88;1.25;;;30.80;35.50;;;;;;5086279;28;20024;-76
2021/05/23 11:10:50;;;;;;;2.60;1.13;;;30.60;36.20;;;;;;5080642;28;20529;-74
2021/05/23 11:13:37;;;;;;;4.53;1.20;;;30.20;36.30;;;;;;5076041;28;20032;-74
2021/05/23 11:16:19;;;;;;;2.60;1.40;;;29.90;37.10;;;;;;5085422;28;20438;-72
2021/05/23 11:18:46;;;;;;;2.92;1.00;;;29.40;37.80;;;;;;5104483;28;20038;-72
2021/05/23 11:21:14;;;;;;;2.63;1.60;;;29.00;38.10;;;;;;5085648;28;20024;-74
2021/05/23 11:23:51;;;;;;;2.65;1.30;;;28.50;37.60;;;;;;5087504;28;20028;-74
2021/05/23 11:26:18;;;;;;;1.65;1.13;;;28.10;37.90;;;;;;5086489;28;20028;-71
2021/05/23 11:28:55;;;;;;;2.10;1.40;;;27.60;38.20;;;;;;5087392;28;20103;-71
2021/05/23 11:31:22;;;;;;;3.08;1.50;;;27.10;38.70;;;;;;5087914;28;20086;-70
2021/05/23 11:33:50;;;;;;;2.20;1.30;;;26.80;39.90;;;;;;5089475;28;20029;-71
2021/05/23 11:36:21;;;;;;;3.88;1.48;;;26.50;40.00;;;;;;5088983;28;20058;-71
2021/05/23 11:38:46;;;;;;;3.15;1.50;;;26.40;40.10;;;;;;5088770;28;20028;-72
2021/05/23 11:41:12;;;;;;;5.18;1.30;;;26.20;40.10;;;;;;5086083;28;20081;-73
2021/05/23 11:43:38;;;;;;;2.83;1.20;;;26.20;41.30;;;;;;5085287;28;20024;-73
2021/05/23 11:46:06;;;;;;;2.03;1.08;;;26.20;41.30;;;;;;5086691;28;20094;-73
2021/05/23 11:48:34;;;;;;;3.92;1.33;;;26.00;40.60;;;;;;5084617;28;20086;-73
2021/05/23 11:51:01;;;;;;;2.58;1.20;;;25.80;41.00;;;;;;5089999;28;20118;-71
2021/05/23 11:53:45;;;;;;;5.88;1.10;;;25.70;41.50;;;;;;5086970;28;20032;-73
2021/05/23 11:56:19;;;;;;;2.75;1.38;;;25.60;40.60;;;;;;5091751;28;20492;-68
2021/05/23 11:58:50;;;;;;;2.75;1.30;;;25.60;42.10;;;;;;5089870;28;20766;-71
2021/05/23 12:01:18;;;;;;;2.38;1.10;;;25.60;41.10;;;;;;5106494;28;20024;-75
2021/05/23 12:04:05;;;;;;;5.63;1.48;;;25.70;40.80;;;;;;5086835;28;20035;-72
2021/05/23 12:06:35;;;;;;;1.45;0.98;;;25.50;40.30;;;;;;5090872;28;20032;-68
2021/05/23 12:09:14;;;;;;;3.35;1.40;;;25.40;40.50;;;;;;5090648;28;20466;-80
2021/05/23 12:11:47;;;;;;;5.05;1.42;;;25.30;40.30;;;;;;5089897;28;20036;-80
2021/05/23 12:14:33;;;;;;;1.95;1.30;;;25.20;40.50;;;;;;5090723;28;20496;-77
2021/05/23 12:17:09;;;;;;;;;;;25.30;41.00;;;;;;5093300;28;20121;-73
2021/05/23 12:19:59;;;;;;;3.78;2.10;;;25.30;40.70;;;;;;5095692;28;19908;-69
2021/05/23 12:22:26;;;;;;;2.55;1.20;;;25.30;40.90;;;;;;5091511;28;20466;-73
2021/05/23 12:24:56;;;;;;;2.53;1.00;;;25.30;40.70;;;;;;5109973;28;20375;-68
2021/05/23 12:27:29;;;;;;;1.73;1.20;;;25.20;41.00;;;;;;5081434;28;20063;-70
2021/05/23 12:30:10;;;;;;;2.63;1.60;;;25.20;41.10;;;;;;5091067;28;20036;-68
2021/05/23 12:32:44;;;;;;;3.17;1.13;;;25.10;41.50;;;;;;5094394;28;20031;-72
2021/05/23 12:35:25;;;;;;;2.13;1.40;;;25.20;41.10;;;;;;5092511;28;20024;-71
2021/05/23 12:38:16;;;;;;;5.30;1.20;;;25.30;41.20;;;;;;5091957;28;20024;-70
2021/05/23 12:40:50;;;;;;;2.00;1.00;;;25.40;41.20;;;;;;5084530;28;20028;-72
2021/05/23 12:43:26;;;;;;;3.47;1.40;;;25.40;41.20;;;;;;5086338;28;20439;-68
2021/05/23 12:46:03;;;;;;;3.63;1.60;;;25.50;42.30;;;;;;5091010;28;20115;-70
2021/05/23 12:48:39;;;;;;;3.15;1.10;;;25.70;41.90;;;;;;5102910;28;20028;-70